TimeCST,TemperatureF,Dew PointF,Humidity,Sea Level PressureIn,VisibilityMPH,Wind Direction,Wind SpeedMPH,Gust SpeedMPH,PrecipitationIn,Events,Conditions,WindDirDegrees,DateUTC
12:52 AM,33.1,28.9,85,30.35,7.0,Calm,Calm,-,N/A,,Clear,0,2012-11-16 06:52:00
1:52 AM,34.0,30.0,85,30.36,8.0,NNW,3.5,-,N/A,,Clear,340,2012-11-16 07:52:00
2:52 AM,32.0,28.9,88,30.36,7.0,Calm,Calm,-,N/A,,Clear,0,2012-11-16 08:52:00
3:52 AM,30.0,27.0,88,30.36,6.0,Calm,Calm,-,N/A,,Clear,0,2012-11-16 09:52:00
4:52 AM,30.9,28.0,89,30.37,6.0,NNW,4.6,-,N/A,,Clear,330,2012-11-16 10:52:00
5:52 AM,32.0,28.0,85,30.38,6.0,North,3.5,-,N/A,,Clear,350,2012-11-16 11:52:00
6:52 AM,32.0,28.0,85,30.41,4.0,NNW,4.6,-,N/A,,Clear,340,2012-11-16 12:52:00
7:52 AM,37.0,30.9,79,30.43,4.0,North,3.5,-,N/A,,Haze,350,2012-11-16 13:52:00
8:52 AM,44.1,33.1,65,30.43,7.0,NE,4.6,-,N/A,,Clear,40,2012-11-16 14:52:00
9:52 AM,48.0,33.1,56,30.44,9.0,NNE,6.9,-,N/A,,Clear,20,2012-11-16 15:52:00
10:52 AM,50.0,32.0,50,30.43,10.0,NNE,6.9,-,N/A,,Clear,20,2012-11-16 16:52:00
11:52 AM,53.1,30.9,43,30.40,10.0,NNE,5.8,-,N/A,,Clear,20,2012-11-16 17:52:00
12:52 PM,55.0,28.9,37,30.39,10.0,North,5.8,-,N/A,,Clear,10,2012-11-16 18:52:00
1:52 PM,55.9,28.0,34,30.38,10.0,NE,6.9,-,N/A,,Clear,50,2012-11-16 19:52:00
2:52 PM,57.0,28.0,33,30.38,10.0,North,9.2,-,N/A,,Clear,10,2012-11-16 20:52:00
3:52 PM,55.0,28.9,37,30.39,10.0,North,9.2,-,N/A,,Clear,360,2012-11-16 21:52:00
4:52 PM,48.9,28.9,46,30.39,10.0,North,6.9,-,N/A,,Clear,10,2012-11-16 22:52:00
5:52 PM,45.0,28.9,53,30.41,10.0,North,6.9,-,N/A,,Clear,10,2012-11-16 23:52:00
6:52 PM,42.1,28.9,60,30.42,10.0,NNE,6.9,-,N/A,,Clear,20,2012-11-17 00:52:00
7:52 PM,39.0,28.0,65,30.41,10.0,North,5.8,-,N/A,,Clear,10,2012-11-17 01:52:00
8:52 PM,39.0,28.0,65,30.42,10.0,NNE,5.8,-,N/A,,Clear,20,2012-11-17 02:52:00
9:52 PM,37.9,28.0,68,30.42,10.0,North,4.6,-,N/A,,Clear,360,2012-11-17 03:52:00
10:52 PM,39.0,28.0,65,30.43,10.0,NNE,3.5,-,N/A,,Clear,30,2012-11-17 04:52:00
11:52 PM,37.0,28.0,70,30.43,10.0,Calm,Calm,-,N/A,,Clear,0,2012-11-17 05:52:00